الصفحة الرئيسية
METAR-TAF:

METAR-TAF

مطار :

Mudgee, أستراليا

دائرة عرض: 32-33-45S, خط طول: 149-36-40E, ارتفاع: 471 متر

مراقبة الطقس الحالي

تاريخ ووقت الإصدار 34 دقيقة قبل الساعة 20:30UTC
ريح 3 عقدة من الشمال/الشمال الشرقي
درجة الحرارة 8°درجة مئوية
الرطوبة 93%
ضغط 1022 hPa
الرؤية: 0350 متر
ملبد بالغيوم على ارتفاع 200 قدم

METAR: YMDG 172030Z AUTO 03003KT 0350 // OVC002 08/07 Q1022

زمن: 07:04 (21:04 UTC)


TAF: مفقودة

أرصاد الطقس والتوقعات من أكثر من 4000 مطار (تقارير الطقس للمطار METAR والتنبؤ بالطقس بالمطارTAF).

المحطات المتاحة هي النقط الصفراء والحمراء على الخريطة.

حرك المؤشر فوق النقطة لمعرفة اسم المحطة.

ثم انقر لمعرفة أرصاد وتوقعات الطقس.

لتغيير الخارطة: اضغط على الأزرار الخضراء مع رمز الصليب الأسود للتكبير. على الزر الأخضر مع شرطة للتصغير، أو على الأسهم الخضراء للخرائط المجاورة.


METAR-TAF: